Terminal Aerodrome Forecast
Issued by NWS

Current Version | Previous Version | Graphics & Text | Print | Product List | Glossary On
Versions: 1 2 3 4 5 6 7 8 9 10 11 12 13 14 15 16 17 18 19 20 21 22 23 24 25 26 27 28
000
FTUS41 KILN 051130
TAFLUK
TAF
KLUK 051130Z 0512/0612 36006KT P6SM OVC015
     FM051500 35007KT P6SM BKN025
     FM051800 35012G21KT P6SM VCSH BKN040
     FM060100 34004KT P6SM SCT045=

USA.gov is the U.S. government's official web portal to all federal, state and local government web resources and services.